createdAt,value
2019-03-26T00:00:52.438Z,5.64
2019-03-26T00:01:52.178Z,5.62
2019-03-26T00:02:52.177Z,5.59
2019-03-26T00:04:04.845Z,5.59
2019-03-26T00:04:52.403Z,5.64
2019-03-26T00:05:52.392Z,5.62
2019-03-26T00:06:51.878Z,5.68
2019-03-26T00:07:52.363Z,5.65
2019-03-26T00:08:52.367Z,5.71
2019-03-26T00:09:52.129Z,5.71
2019-03-26T00:10:52.338Z,5.69
2019-03-26T00:11:52.337Z,5.62
2019-03-26T00:12:52.332Z,5.71
2019-03-26T00:13:51.836Z,5.65
2019-03-26T00:14:52.300Z,5.61
2019-03-26T00:15:52.301Z,5.69
2019-03-26T00:16:52.280Z,5.66
2019-03-26T00:17:52.287Z,5.71
2019-03-26T00:18:52.273Z,5.79
2019-03-26T00:19:52.276Z,5.76
2019-03-26T00:20:52.046Z,5.75
2019-03-26T00:21:51.984Z,5.79
2019-03-26T00:22:52.216Z,5.75
2019-03-26T00:23:52.226Z,5.83
2019-03-26T00:24:52.229Z,5.8
2019-03-26T00:25:52.197Z,5.83
2019-03-26T00:26:52.024Z,5.8
2019-03-26T00:27:51.962Z,5.75
2019-03-26T00:28:51.934Z,5.8
2019-03-26T00:29:51.964Z,5.73
2019-03-26T00:30:51.911Z,5.76
2019-03-26T00:31:52.136Z,5.8
2019-03-26T00:32:52.139Z,5.83
2019-03-26T00:33:51.931Z,5.84
2019-03-26T00:34:51.864Z,5.84
2019-03-26T00:35:51.619Z,5.86
2019-03-26T00:36:51.850Z,5.89
2019-03-26T00:37:52.091Z,5.9
2019-03-26T00:38:52.322Z,5.91
2019-03-26T00:39:52.072Z,5.93
2019-03-26T00:40:52.081Z,5.83
2019-03-26T00:41:51.824Z,5.87
2019-03-26T00:42:51.541Z,5.83
2019-03-26T00:43:52.062Z,5.86
2019-03-26T00:44:51.777Z,5.86
2019-03-26T00:45:51.524Z,5.87
2019-03-26T00:46:51.519Z,5.83
2019-03-26T00:47:52.008Z,5.8
2019-03-26T00:48:52.019Z,5.83
2019-03-26T00:49:51.993Z,5.76
2019-03-26T00:50:51.976Z,5.73
2019-03-26T00:51:51.813Z,5.71
2019-03-26T00:52:51.950Z,5.79
2019-03-26T00:53:51.696Z,5.73
2019-03-26T00:54:51.697Z,5.75
2019-03-26T00:55:51.698Z,5.75
2019-03-26T00:56:51.679Z,5.65
2019-03-26T00:57:51.921Z,5.69
2019-03-26T00:58:51.901Z,5.64
2019-03-26T00:59:51.665Z,5.76
2019-03-26T01:00:51.884Z,5.68
2019-03-26T01:01:51.640Z,5.66
2019-03-26T01:02:51.864Z,5.66
2019-03-26T01:03:57.656Z,5.59
2019-03-26T01:04:51.631Z,5.59
2019-03-26T01:05:51.343Z,5.57
2019-03-26T01:06:51.833Z,5.47
2019-03-26T01:07:51.328Z,5.64
2019-03-26T01:08:51.832Z,5.61
2019-03-26T01:09:51.580Z,5.54
2019-03-26T01:10:51.581Z,5.47
2019-03-26T01:11:51.585Z,5.56
2019-03-26T01:12:51.910Z,5.5
2019-03-26T01:13:51.519Z,5.59
2019-03-26T01:14:51.762Z,5.61
2019-03-26T01:15:51.508Z,5.57
2019-03-26T01:16:51.766Z,5.56
2019-03-26T01:17:51.761Z,5.56
2019-03-26T01:18:51.558Z,5.62
2019-03-26T01:19:51.468Z,5.61
2019-03-26T01:20:51.710Z,5.54
2019-03-26T01:21:51.700Z,5.59
2019-03-26T01:22:51.701Z,5.61
2019-03-26T01:23:51.182Z,5.56
2019-03-26T01:24:51.430Z,5.54
2019-03-26T01:25:51.424Z,5.62
2019-03-26T01:26:51.648Z,5.53
2019-03-26T01:27:51.650Z,5.56
2019-03-26T01:28:51.386Z,5.62
2019-03-26T01:29:51.139Z,5.59
2019-03-26T01:30:51.622Z,5.56
2019-03-26T01:31:51.376Z,5.56
2019-03-26T01:32:51.599Z,5.53
2019-03-26T01:33:51.356Z,5.66
2019-03-26T01:34:51.578Z,5.62
2019-03-26T01:35:51.582Z,5.64
2019-03-26T01:36:51.576Z,5.48
2019-03-26T01:37:51.568Z,5.64
2019-03-26T01:38:51.559Z,5.56
2019-03-26T01:39:51.292Z,5.64
2019-03-26T01:40:51.281Z,5.62
2019-03-26T01:41:51.512Z,5.64
2019-03-26T01:42:51.514Z,5.53
2019-03-26T01:43:51.511Z,5.57
2019-03-26T01:44:51.237Z,5.54
2019-03-26T01:45:51.484Z,5.48
2019-03-26T01:46:51.238Z,5.54
2019-03-26T01:47:51.209Z,5.5
2019-03-26T01:48:51.447Z,5.53
2019-03-26T01:49:51.245Z,5.54
2019-03-26T01:50:51.184Z,5.48
2019-03-26T01:51:51.524Z,5.47
2019-03-26T01:52:51.165Z,5.36
2019-03-26T01:53:51.406Z,5.38
2019-03-26T01:54:51.414Z,5.41
2019-03-26T01:55:51.138Z,5.36
2019-03-26T01:56:50.889Z,5.25
2019-03-26T01:57:51.406Z,5.26
2019-03-26T01:58:51.146Z,5.36
2019-03-26T01:59:51.351Z,5.21
2019-03-26T02:00:51.348Z,5.25
2019-03-26T02:01:51.092Z,5.3
2019-03-26T02:02:51.337Z,5.3
2019-03-26T02:03:51.321Z,5.3
2019-03-26T02:05:03.935Z,5.32
2019-03-26T02:05:51.068Z,5.25
2019-03-26T02:06:51.290Z,5.1
2019-03-26T02:07:50.800Z,5.21
2019-03-26T02:08:51.273Z,5.2
2019-03-26T02:09:51.269Z,5.08
2019-03-26T02:10:50.755Z,5.1
2019-03-26T02:11:51.244Z,5
2019-03-26T02:12:53.203Z,5.02
2019-03-26T02:13:51.225Z,5.07
2019-03-26T02:14:51.210Z,5.02
2019-03-26T02:15:51.205Z,4.97
2019-03-26T02:16:51.204Z,4.97
2019-03-26T02:17:51.195Z,5
2019-03-26T02:18:50.937Z,5.05
2019-03-26T02:19:50.919Z,5.12
2019-03-26T02:20:50.922Z,5.07
2019-03-26T02:21:51.148Z,5.11
2019-03-26T02:22:50.909Z,5.14
2019-03-26T02:23:51.136Z,5.2
2019-03-26T02:24:51.128Z,5.14
2019-03-26T02:25:51.138Z,5.26
2019-03-26T02:26:50.866Z,5.23
2019-03-26T02:27:50.841Z,5.28
2019-03-26T02:28:51.093Z,5.3
2019-03-26T02:29:51.133Z,5.29
2019-03-26T02:30:50.851Z,5.29
2019-03-26T02:31:50.825Z,5.21
2019-03-26T02:32:51.052Z,5.26
2019-03-26T02:33:51.050Z,5.3
2019-03-26T02:34:50.789Z,5.29
2019-03-26T02:35:50.801Z,5.28
2019-03-26T02:36:50.761Z,5.18
2019-03-26T02:37:50.754Z,5.12
2019-03-26T02:38:50.738Z,5.12
2019-03-26T02:39:50.979Z,5.08
2019-03-26T02:40:50.979Z,5.05
2019-03-26T02:41:50.789Z,5
2019-03-26T02:42:50.703Z,4.96
2019-03-26T02:43:50.696Z,4.94
2019-03-26T02:44:50.961Z,4.93
2019-03-26T02:45:50.932Z,4.86
2019-03-26T02:46:50.922Z,4.8
2019-03-26T02:47:50.916Z,4.74
2019-03-26T02:48:50.653Z,4.82
2019-03-26T02:49:50.881Z,4.7
2019-03-26T02:50:50.676Z,4.82
2019-03-26T02:51:50.633Z,4.7
2019-03-26T02:52:50.871Z,4.77
2019-03-26T02:53:50.631Z,4.66
2019-03-26T02:54:50.924Z,4.66
2019-03-26T02:55:50.613Z,4.68
2019-03-26T02:56:50.601Z,4.71
2019-03-26T02:57:50.832Z,4.66
2019-03-26T02:58:50.805Z,4.62
2019-03-26T02:59:50.796Z,4.62
2019-03-26T03:00:50.788Z,4.6
2019-03-26T03:01:50.806Z,4.52
2019-03-26T03:02:50.755Z,4.58
2019-03-26T03:03:50.528Z,4.55
2019-03-26T03:04:50.644Z,4.55
2019-03-26T03:05:50.741Z,4.49
2019-03-26T03:06:50.732Z,4.5
2019-03-26T03:07:50.903Z,4.5
2019-03-26T03:08:50.456Z,4.52
2019-03-26T03:09:50.456Z,4.48
2019-03-26T03:10:50.700Z,4.49
2019-03-26T03:11:50.427Z,4.45
2019-03-26T03:12:50.703Z,4.45
2019-03-26T03:13:50.660Z,4.52
2019-03-26T03:14:50.167Z,4.41
2019-03-26T03:15:50.648Z,4.45
2019-03-26T03:16:50.155Z,4.49
2019-03-26T03:17:50.632Z,4.55
2019-03-26T03:18:50.640Z,4.5
2019-03-26T03:19:50.639Z,4.49
2019-03-26T03:20:50.670Z,4.38
2019-03-26T03:21:50.331Z,4.49
2019-03-26T03:22:50.567Z,4.44
2019-03-26T03:23:50.339Z,4.41
2019-03-26T03:24:50.565Z,4.4
2019-03-26T03:25:50.544Z,4.3
2019-03-26T03:26:50.530Z,4.32
2019-03-26T03:27:50.276Z,4.37
2019-03-26T03:28:50.523Z,4.4
2019-03-26T03:29:50.506Z,4.32
2019-03-26T03:30:50.501Z,4.37
2019-03-26T03:31:50.522Z,4.37
2019-03-26T03:32:50.498Z,4.32
2019-03-26T03:33:50.387Z,4.34
2019-03-26T03:34:50.209Z,4.31
2019-03-26T03:35:57.613Z,4.26
2019-03-26T03:36:50.212Z,4.26
2019-03-26T03:37:50.184Z,4.26
2019-03-26T03:38:50.167Z,4.22
2019-03-26T03:39:50.226Z,4.22
2019-03-26T03:40:50.150Z,4.24
2019-03-26T03:41:50.386Z,4.24
2019-03-26T03:42:50.384Z,4.3
2019-03-26T03:43:50.161Z,4.37
2019-03-26T03:44:50.276Z,4.37
2019-03-26T03:45:50.360Z,4.42
2019-03-26T03:46:49.864Z,4.45
2019-03-26T03:47:49.847Z,4.48
2019-03-26T03:48:49.845Z,4.52
2019-03-26T03:49:50.309Z,4.5
2019-03-26T03:50:50.136Z,4.49
2019-03-26T03:51:50.280Z,4.53
2019-03-26T03:52:50.079Z,4.55
2019-03-26T03:53:50.295Z,4.5
2019-03-26T03:54:50.034Z,4.56
2019-03-26T03:55:50.284Z,4.53
2019-03-26T03:56:50.255Z,4.59
2019-03-26T03:57:52.700Z,4.6
2019-03-26T03:58:49.990Z,4.6
2019-03-26T03:59:49.983Z,4.7
2019-03-26T04:00:50.259Z,4.6
2019-03-26T04:01:50.232Z,4.63
2019-03-26T04:02:50.204Z,4.62
2019-03-26T04:03:49.694Z,4.62
2019-03-26T04:04:49.940Z,4.74
2019-03-26T04:05:50.489Z,4.74
2019-03-26T04:06:49.938Z,4.73
2019-03-26T04:07:49.920Z,4.66
2019-03-26T04:08:49.942Z,4.71
2019-03-26T04:09:49.639Z,4.86
2019-03-26T04:10:49.885Z,4.78
2019-03-26T04:11:50.153Z,4.77
2019-03-26T04:12:49.859Z,4.8
2019-03-26T04:13:50.142Z,4.8
2019-03-26T04:14:49.863Z,4.82
2019-03-26T04:15:49.834Z,4.75
2019-03-26T04:16:50.100Z,4.87
2019-03-26T04:17:49.828Z,4.8
2019-03-26T04:18:49.702Z,4.84
2019-03-26T04:19:50.058Z,4.82
2019-03-26T04:20:50.077Z,4.86
2019-03-26T04:21:49.790Z,4.77
2019-03-26T04:22:49.768Z,4.84
2019-03-26T04:23:49.999Z,4.86
2019-03-26T04:24:49.725Z,4.84
2019-03-26T04:25:49.992Z,4.93
2019-03-26T04:26:49.725Z,4.89
2019-03-26T04:27:49.952Z,4.87
2019-03-26T04:28:49.964Z,4.96
2019-03-26T04:29:49.683Z,4.99
2019-03-26T04:30:50.017Z,4.97
2019-03-26T04:31:49.992Z,4.96
2019-03-26T04:32:49.658Z,5.05
2019-03-26T04:33:49.894Z,5
2019-03-26T04:34:49.646Z,5.07
2019-03-26T04:35:50.225Z,5.02
2019-03-26T04:36:49.629Z,5
2019-03-26T04:37:49.970Z,5.02
2019-03-26T04:38:49.609Z,5.07
2019-03-26T04:39:49.604Z,5.04
2019-03-26T04:40:49.826Z,5.04
2019-03-26T04:41:49.839Z,5.04
2019-03-26T04:42:49.810Z,4.99
2019-03-26T04:43:49.810Z,4.99
2019-03-26T04:44:49.555Z,5.07
2019-03-26T04:45:49.783Z,5.04
2019-03-26T04:46:49.780Z,5.02
2019-03-26T04:47:49.520Z,5.05
2019-03-26T04:48:49.516Z,5.05
2019-03-26T04:49:49.743Z,5.1
2019-03-26T04:50:49.740Z,5.07
2019-03-26T04:51:49.505Z,5.1
2019-03-26T04:52:49.235Z,5.07
2019-03-26T04:53:49.265Z,5.05
2019-03-26T04:54:49.719Z,5.02
2019-03-26T04:55:49.444Z,5.08
2019-03-26T04:56:49.702Z,5.1
2019-03-26T04:57:49.684Z,5.11
2019-03-26T04:58:49.184Z,5.08
2019-03-26T04:59:49.413Z,5.04
2019-03-26T05:00:49.649Z,5.04
2019-03-26T05:01:49.642Z,5.07
2019-03-26T05:02:49.658Z,5.02
2019-03-26T05:03:49.381Z,4.97
2019-03-26T05:04:49.615Z,4.9
2019-03-26T05:05:49.181Z,4.9
2019-03-26T05:06:49.599Z,4.93
2019-03-26T05:07:49.340Z,4.9
2019-03-26T05:08:49.331Z,4.89
2019-03-26T05:09:49.569Z,4.89
2019-03-26T05:10:51.754Z,4.9
2019-03-26T05:11:49.303Z,4.92
2019-03-26T05:12:49.294Z,4.77
2019-03-26T05:13:49.287Z,4.84
2019-03-26T05:14:49.530Z,4.87
2019-03-26T05:15:49.526Z,4.89
2019-03-26T05:16:49.526Z,4.96
2019-03-26T05:17:49.244Z,4.93
2019-03-26T05:18:49.002Z,4.92
2019-03-26T05:19:49.227Z,4.92
2019-03-26T05:20:49.240Z,4.86
2019-03-26T05:21:49.222Z,4.92
2019-03-26T05:22:48.962Z,4.93
2019-03-26T05:23:51.752Z,4.99
2019-03-26T05:24:49.444Z,4.99
2019-03-26T05:25:48.995Z,4.99
2019-03-26T05:26:49.416Z,4.96
2019-03-26T05:27:50.620Z,5
2019-03-26T05:28:48.914Z,5.04
2019-03-26T05:29:49.408Z,5.04
2019-03-26T05:30:49.139Z,5.02
2019-03-26T05:31:49.119Z,5.04
2019-03-26T05:32:49.362Z,5.04
2019-03-26T05:33:48.874Z,5
2019-03-26T05:34:49.340Z,5.08
2019-03-26T05:35:51.566Z,5.1
2019-03-26T05:36:56.291Z,5.14
2019-03-26T05:37:49.083Z,5.12
2019-03-26T05:38:48.838Z,5.17
2019-03-26T05:39:49.329Z,5.15
2019-03-26T05:40:48.873Z,5.14
2019-03-26T05:41:49.036Z,5.18
2019-03-26T05:42:48.851Z,5.32
2019-03-26T05:43:49.034Z,5.28
2019-03-26T05:44:49.257Z,5.32
2019-03-26T05:45:49.260Z,5.29
2019-03-26T05:46:48.750Z,5.38
2019-03-26T05:47:48.981Z,5.28
2019-03-26T05:48:48.990Z,5.39
2019-03-26T05:49:49.212Z,5.3
2019-03-26T05:50:49.192Z,5.46
2019-03-26T05:51:49.218Z,5.47
2019-03-26T05:52:48.938Z,5.56
2019-03-26T05:53:49.206Z,5.48
2019-03-26T05:54:49.164Z,5.61
2019-03-26T05:55:48.911Z,5.59
2019-03-26T05:56:48.893Z,5.64
2019-03-26T05:57:48.642Z,5.59
2019-03-26T05:58:48.882Z,5.71
2019-03-26T05:59:49.138Z,5.65
2019-03-26T06:00:48.867Z,5.62
2019-03-26T06:01:48.857Z,5.71
2019-03-26T06:02:48.852Z,5.71
2019-03-26T06:03:49.084Z,5.69
2019-03-26T06:04:48.836Z,5.68
2019-03-26T06:05:48.823Z,5.72
2019-03-26T06:07:06.610Z,5.84
2019-03-26T06:07:49.054Z,5.75
2019-03-26T06:08:49.077Z,5.89
2019-03-26T06:09:48.794Z,5.83
2019-03-26T06:10:48.790Z,5.87
2019-03-26T06:11:49.033Z,5.97
2019-03-26T06:12:50.251Z,5.89
2019-03-26T06:13:49.009Z,5.91
2019-03-26T06:14:48.752Z,5.98
2019-03-26T06:15:48.496Z,5.99
2019-03-26T06:16:48.986Z,5.97
2019-03-26T06:17:49.022Z,5.98
2019-03-26T06:18:48.470Z,5.94
2019-03-26T06:19:48.954Z,5.99
2019-03-26T06:20:48.700Z,6.05
2019-03-26T06:21:49.000Z,5.99
2019-03-26T06:22:48.975Z,6.05
2019-03-26T06:23:48.672Z,5.99
2019-03-26T06:24:48.921Z,6.11
2019-03-26T06:25:48.702Z,6.07
2019-03-26T06:26:48.405Z,6.04
2019-03-26T06:27:48.893Z,6.04
2019-03-26T06:28:48.945Z,6.05
2019-03-26T06:29:48.931Z,6.12
2019-03-26T06:30:48.869Z,6.12
2019-03-26T06:31:48.884Z,6.08
2019-03-26T06:32:48.858Z,6.14
2019-03-26T06:33:48.954Z,6.12
2019-03-26T06:34:48.584Z,6.27
2019-03-26T06:35:48.596Z,6.24
2019-03-26T06:36:48.564Z,6.24
2019-03-26T06:37:48.313Z,6.26
2019-03-26T06:38:48.563Z,6.24
2019-03-26T06:39:48.303Z,6.28
2019-03-26T06:40:48.304Z,6.19
2019-03-26T06:41:48.529Z,6.14
2019-03-26T06:42:48.783Z,6.11
2019-03-26T06:43:48.516Z,6.08
2019-03-26T06:44:48.503Z,6.11
2019-03-26T06:45:48.746Z,6.16
2019-03-26T06:46:48.505Z,6.19
2019-03-26T06:47:48.497Z,6.11
2019-03-26T06:48:48.720Z,6.14
2019-03-26T06:49:48.484Z,6.11
2019-03-26T06:50:48.471Z,6.11
2019-03-26T06:51:48.781Z,6.11
2019-03-26T06:52:48.447Z,6.07
2019-03-26T06:53:48.703Z,5.99
2019-03-26T06:54:51.394Z,6.01
2019-03-26T06:55:48.679Z,5.98
2019-03-26T06:56:48.432Z,5.99
2019-03-26T06:57:48.751Z,6.02
2019-03-26T06:58:48.660Z,6.08
2019-03-26T06:59:48.387Z,6.11
2019-03-26T07:00:48.632Z,6.09
2019-03-26T07:01:48.377Z,6.11
2019-03-26T07:02:48.621Z,6.12
2019-03-26T07:03:48.639Z,6.09
2019-03-26T07:04:48.349Z,6.16
2019-03-26T07:05:48.354Z,6.09
2019-03-26T07:06:48.578Z,6.11
2019-03-26T07:07:48.582Z,6.07
2019-03-26T07:08:48.306Z,6.08
2019-03-26T07:09:48.547Z,6.12
2019-03-26T07:10:48.361Z,6.12
2019-03-26T07:11:48.304Z,6.12
2019-03-26T07:12:48.274Z,6.11
2019-03-26T07:13:48.515Z,6.07
2019-03-26T07:14:48.594Z,6.08
2019-03-26T07:15:48.007Z,6.11
2019-03-26T07:16:48.501Z,6.11
2019-03-26T07:17:47.991Z,6.16
2019-03-26T07:18:48.500Z,6.14
2019-03-26T07:19:47.983Z,6.11
2019-03-26T07:20:48.479Z,6.27
2019-03-26T07:21:54.364Z,6.26
2019-03-26T07:22:48.190Z,6.19
2019-03-26T07:23:48.196Z,6.24
2019-03-26T07:24:48.183Z,6.12
2019-03-26T07:25:48.176Z,6.16
2019-03-26T07:26:48.426Z,6.09
2019-03-26T07:27:48.153Z,6.16
2019-03-26T07:28:48.158Z,6.17
2019-03-26T07:29:48.393Z,6.12
2019-03-26T07:30:48.182Z,6.26
2019-03-26T07:31:48.373Z,6.24
2019-03-26T07:32:48.134Z,6.33
2019-03-26T07:33:48.371Z,6.38
2019-03-26T07:34:48.106Z,6.44
2019-03-26T07:35:48.100Z,6.39
2019-03-26T07:36:48.077Z,6.44
2019-03-26T07:37:50.093Z,6.52
2019-03-26T07:38:47.832Z,6.46
2019-03-26T07:39:48.078Z,6.48
2019-03-26T07:40:48.370Z,6.42
2019-03-26T07:41:48.051Z,6.45
2019-03-26T07:42:48.289Z,6.42
2019-03-26T07:43:48.046Z,6.49
2019-03-26T07:44:50.342Z,6.49
2019-03-26T07:45:48.021Z,6.48
2019-03-26T07:46:48.015Z,6.59
2019-03-26T07:47:47.780Z,6.6
2019-03-26T07:48:48.062Z,6.75
2019-03-26T07:49:48.304Z,6.67
2019-03-26T07:50:48.058Z,6.75
2019-03-26T07:51:48.007Z,6.72
2019-03-26T07:52:47.948Z,6.77
2019-03-26T07:53:48.193Z,6.74
2019-03-26T07:54:47.964Z,6.75
2019-03-26T07:55:48.598Z,6.79
2019-03-26T07:56:47.675Z,6.74
2019-03-26T07:57:47.682Z,6.79
2019-03-26T07:58:47.946Z,6.81
2019-03-26T07:59:47.914Z,6.72
2019-03-26T08:00:48.140Z,6.84
2019-03-26T08:01:48.159Z,6.84
2019-03-26T08:02:47.883Z,6.89
2019-03-26T08:03:48.148Z,6.93
2019-03-26T08:04:47.887Z,7.06
2019-03-26T08:05:48.149Z,7.17
2019-03-26T08:06:47.848Z,7.14
2019-03-26T08:08:00.704Z,7.13
2019-03-26T08:08:48.100Z,7.17
2019-03-26T08:09:47.612Z,7.17
2019-03-26T08:10:47.864Z,7.2
2019-03-26T08:11:47.829Z,7.2
2019-03-26T08:12:48.121Z,7.29
2019-03-26T08:13:48.119Z,7.28
2019-03-26T08:14:48.115Z,7.21
2019-03-26T08:15:48.137Z,7.23
2019-03-26T08:16:47.824Z,7.14
2019-03-26T08:17:49.738Z,7.11
2019-03-26T08:18:48.035Z,7.18
2019-03-26T08:19:47.793Z,7.07
2019-03-26T08:20:48.007Z,7
2019-03-26T08:21:47.745Z,7.07
2019-03-26T08:22:47.997Z,6.93
2019-03-26T08:23:47.733Z,6.92
2019-03-26T08:24:47.737Z,6.93
2019-03-26T08:25:47.733Z,6.95
2019-03-26T08:26:47.714Z,6.92
2019-03-26T08:27:47.967Z,6.88
2019-03-26T08:28:47.950Z,7.02
2019-03-26T08:29:47.946Z,7.1
2019-03-26T08:30:50.083Z,7.15
2019-03-26T08:31:47.956Z,7.14
2019-03-26T08:32:47.693Z,7.29
2019-03-26T08:33:47.666Z,7.29
2019-03-26T08:34:49.261Z,7.36
2019-03-26T08:35:47.890Z,7.33
2019-03-26T08:36:47.889Z,7.35
2019-03-26T08:37:48.196Z,7.38
2019-03-26T08:38:47.391Z,7.35
2019-03-26T08:39:47.882Z,7.38
2019-03-26T08:40:47.630Z,7.39
2019-03-26T08:41:47.364Z,7.56
2019-03-26T08:42:47.648Z,7.7
2019-03-26T08:43:47.615Z,7.97
2019-03-26T08:44:47.332Z,8.01
2019-03-26T08:45:47.608Z,8.24
2019-03-26T08:46:51.123Z,8.51
2019-03-26T08:47:47.832Z,8.61
2019-03-26T08:48:47.811Z,8.88
2019-03-26T08:49:47.581Z,9.08
2019-03-26T08:50:47.565Z,9.14
2019-03-26T08:51:47.557Z,9.13
2019-03-26T08:52:47.294Z,9.39
2019-03-26T08:53:47.286Z,9.44
2019-03-26T08:54:47.771Z,9.43
2019-03-26T08:55:47.520Z,9.41
2019-03-26T08:56:47.540Z,9.58
2019-03-26T08:57:47.768Z,9.51
2019-03-26T08:58:47.532Z,9.65
2019-03-26T08:59:47.505Z,9.74
2019-03-26T09:00:47.765Z,9.76
2019-03-26T09:01:47.492Z,9.76
2019-03-26T09:02:47.488Z,9.79
2019-03-26T09:03:47.488Z,9.68
2019-03-26T09:04:47.729Z,9.73
2019-03-26T09:05:47.473Z,9.69
2019-03-26T09:06:47.464Z,9.69
2019-03-26T09:07:52.813Z,9.66
2019-03-26T09:08:47.212Z,9.68
2019-03-26T09:09:47.469Z,9.62
2019-03-26T09:10:56.445Z,9.4
2019-03-26T09:11:47.705Z,9.29
2019-03-26T09:12:47.686Z,9.11
2019-03-26T09:13:47.446Z,8.97
2019-03-26T09:14:47.439Z,8.94
2019-03-26T09:15:47.684Z,8.95
2019-03-26T09:16:47.417Z,9.02
2019-03-26T09:17:49.531Z,8.88
2019-03-26T09:18:47.680Z,8.81
2019-03-26T09:19:47.169Z,8.87
2019-03-26T09:20:47.409Z,8.87
2019-03-26T09:21:47.660Z,8.88
2019-03-26T09:22:47.385Z,8.88
2019-03-26T09:23:47.153Z,8.84
2019-03-26T09:24:47.641Z,8.94
2019-03-26T09:25:47.631Z,8.97
2019-03-26T09:26:47.623Z,9.13
2019-03-26T09:27:47.621Z,9.23
2019-03-26T09:28:50.302Z,9.31
2019-03-26T09:29:47.606Z,9.21
2019-03-26T09:30:47.604Z,9.14
2019-03-26T09:31:47.348Z,9.23
2019-03-26T09:32:47.378Z,9.29
2019-03-26T09:33:47.353Z,9.36
2019-03-26T09:34:47.398Z,9.5
2019-03-26T09:35:47.593Z,9.58
2019-03-26T09:36:47.578Z,9.69
2019-03-26T09:37:47.576Z,9.66
2019-03-26T09:38:47.616Z,9.72
2019-03-26T09:39:47.313Z,9.77
2019-03-26T09:40:47.341Z,9.87
2019-03-26T09:41:47.558Z,9.99
2019-03-26T09:42:47.547Z,10.05
2019-03-26T09:43:47.551Z,10.22
2019-03-26T09:44:47.544Z,10.23
2019-03-26T09:45:47.290Z,10.34
2019-03-26T09:46:47.527Z,10.48
2019-03-26T09:47:47.527Z,10.54
2019-03-26T09:48:48.335Z,10.64
2019-03-26T09:49:47.291Z,10.6
2019-03-26T09:50:47.520Z,10.61
2019-03-26T09:51:47.518Z,10.63
2019-03-26T09:52:47.267Z,10.44
2019-03-26T09:53:47.508Z,10.35
2019-03-26T09:54:47.279Z,10.28
2019-03-26T09:55:47.567Z,10.31
2019-03-26T09:56:47.500Z,10.31
2019-03-26T09:57:46.997Z,10.38
2019-03-26T09:58:47.495Z,10.37
2019-03-26T09:59:47.583Z,10.44
2019-03-26T10:00:47.894Z,10.37
2019-03-26T10:01:47.227Z,10.33
2019-03-26T10:02:48.336Z,10.22
2019-03-26T10:03:47.469Z,10.09
2019-03-26T10:04:47.299Z,9.92
2019-03-26T10:05:47.224Z,9.73
2019-03-26T10:06:47.464Z,9.64
2019-03-26T10:07:47.313Z,9.62
2019-03-26T10:08:57.217Z,9.5
2019-03-26T10:09:47.450Z,9.34
2019-03-26T10:10:46.943Z,9.19
2019-03-26T10:11:47.446Z,9
2019-03-26T10:12:47.443Z,8.76
2019-03-26T10:13:47.435Z,8.64
2019-03-26T10:14:47.432Z,8.63
2019-03-26T10:15:47.431Z,8.6
2019-03-26T10:16:47.176Z,8.58
2019-03-26T10:17:47.169Z,8.52
2019-03-26T10:18:46.923Z,8.46
2019-03-26T10:19:47.411Z,8.44
2019-03-26T10:20:47.166Z,8.42
2019-03-26T10:21:47.154Z,8.36
2019-03-26T10:22:46.891Z,8.34
2019-03-26T10:23:47.380Z,8.23
2019-03-26T10:24:47.122Z,8.2
2019-03-26T10:25:46.895Z,8.24
2019-03-26T10:26:47.185Z,8.18
2019-03-26T10:27:47.560Z,8.2
2019-03-26T10:28:47.376Z,8.3
2019-03-26T10:29:46.853Z,8.27
2019-03-26T10:30:47.330Z,8.37
2019-03-26T10:31:47.336Z,8.44
2019-03-26T10:32:47.079Z,8.42
2019-03-26T10:33:47.081Z,8.58
2019-03-26T10:34:46.819Z,8.66
2019-03-26T10:35:47.065Z,8.78
2019-03-26T10:36:47.317Z,8.79
2019-03-26T10:37:47.295Z,8.71
2019-03-26T10:38:47.295Z,8.89
2019-03-26T10:39:47.047Z,8.95
2019-03-26T10:40:47.047Z,8.97
2019-03-26T10:41:47.274Z,9.06
2019-03-26T10:42:47.031Z,9.11
2019-03-26T10:43:47.025Z,9.29
2019-03-26T10:44:47.009Z,9.29
2019-03-26T10:45:47.249Z,9.37
2019-03-26T10:46:49.143Z,9.28
2019-03-26T10:47:47.243Z,9.19
2019-03-26T10:48:46.995Z,9.08
2019-03-26T10:49:47.240Z,9
2019-03-26T10:50:47.223Z,8.97
2019-03-26T10:51:47.214Z,8.91
2019-03-26T10:52:46.988Z,8.89
2019-03-26T10:53:46.774Z,8.76
2019-03-26T10:54:47.227Z,8.87
2019-03-26T10:55:46.981Z,8.91
2019-03-26T10:56:47.229Z,8.84
2019-03-26T10:57:47.237Z,9.02
2019-03-26T10:58:46.945Z,9.16
2019-03-26T10:59:46.977Z,9.32
2019-03-26T11:00:46.917Z,9.48
2019-03-26T11:01:47.161Z,9.72
2019-03-26T11:02:46.919Z,10.1
2019-03-26T11:03:46.910Z,10.28
2019-03-26T11:04:46.906Z,10.54
2019-03-26T11:05:46.665Z,10.76
2019-03-26T11:06:47.135Z,10.97
2019-03-26T11:07:47.466Z,10.97
2019-03-26T11:08:50.030Z,10.92
2019-03-26T11:09:46.648Z,10.82
2019-03-26T11:10:47.203Z,10.59
2019-03-26T11:11:47.126Z,10.42
2019-03-26T11:12:46.955Z,10.17
2019-03-26T11:13:47.117Z,10.16
2019-03-26T11:14:47.118Z,10.05
2019-03-26T11:15:46.861Z,10.07
2019-03-26T11:16:47.117Z,10.07
2019-03-26T11:17:47.099Z,10.12
2019-03-26T11:18:46.861Z,10.05
2019-03-26T11:19:48.913Z,10.13
2019-03-26T11:20:47.094Z,10.12
2019-03-26T11:21:47.087Z,10.05
2019-03-26T11:22:46.855Z,10.15
2019-03-26T11:23:47.102Z,10.1
2019-03-26T11:24:46.825Z,10.04
2019-03-26T11:25:46.888Z,10.05
2019-03-26T11:26:47.077Z,10.05
2019-03-26T11:27:46.806Z,10.26
2019-03-26T11:28:46.802Z,10.38
2019-03-26T11:29:46.806Z,10.51
2019-03-26T11:30:47.145Z,10.75
2019-03-26T11:31:46.804Z,10.86
2019-03-26T11:32:46.816Z,10.93
2019-03-26T11:33:46.560Z,10.93
2019-03-26T11:34:46.557Z,10.87
2019-03-26T11:35:46.811Z,10.75
2019-03-26T11:36:46.790Z,10.61
2019-03-26T11:37:47.022Z,10.56
2019-03-26T11:38:46.790Z,10.48
2019-03-26T11:39:47.024Z,10.53
2019-03-26T11:40:47.030Z,10.56
2019-03-26T11:41:46.774Z,10.57
2019-03-26T11:42:46.775Z,10.41
2019-03-26T11:43:46.755Z,10.34
2019-03-26T11:44:46.750Z,10.37
2019-03-26T11:45:47.003Z,10.34
2019-03-26T11:46:46.743Z,10.46
2019-03-26T11:47:46.740Z,10.41
2019-03-26T11:48:46.985Z,10.4
2019-03-26T11:49:46.741Z,10.44
2019-03-26T11:50:46.997Z,10.33
2019-03-26T11:51:46.490Z,10.13
2019-03-26T11:52:46.986Z,10.1
2019-03-26T11:53:46.732Z,9.97
2019-03-26T11:54:46.475Z,9.98
2019-03-26T11:55:46.974Z,9.91
2019-03-26T11:56:46.717Z,9.87
2019-03-26T11:57:46.986Z,9.84
2019-03-26T11:58:46.714Z,9.77
2019-03-26T11:59:46.446Z,9.89
2019-03-26T12:00:46.719Z,9.73
2019-03-26T12:01:46.934Z,9.76
2019-03-26T12:02:46.710Z,9.83
2019-03-26T12:03:46.926Z,9.87
2019-03-26T12:04:46.673Z,9.84
2019-03-26T12:05:46.685Z,9.95
2019-03-26T12:06:46.907Z,10.04
2019-03-26T12:07:47.855Z,10.07
2019-03-26T12:08:46.659Z,10.07
2019-03-26T12:09:51.297Z,10.12
2019-03-26T12:10:46.646Z,10.15
2019-03-26T12:11:46.887Z,10.13
2019-03-26T12:12:46.885Z,10.25
2019-03-26T12:13:46.951Z,10.23
2019-03-26T12:14:46.624Z,10.26
2019-03-26T12:15:46.622Z,10.34
2019-03-26T12:16:46.377Z,10.44
2019-03-26T12:17:46.862Z,10.61
2019-03-26T12:18:46.647Z,10.54
2019-03-26T12:19:46.857Z,10.78
2019-03-26T12:20:46.858Z,10.86
2019-03-26T12:21:46.844Z,10.93
2019-03-26T12:22:46.847Z,11.05
2019-03-26T12:23:46.609Z,10.96
2019-03-26T12:24:46.591Z,10.96
2019-03-26T12:25:46.370Z,10.82
2019-03-26T12:26:46.567Z,10.71
2019-03-26T12:27:46.580Z,10.63
2019-03-26T12:28:46.812Z,10.59
2019-03-26T12:29:46.577Z,10.59
2019-03-26T12:30:46.323Z,10.61
2019-03-26T12:31:46.553Z,10.57
2019-03-26T12:32:46.556Z,10.49
2019-03-26T12:33:46.553Z,10.56
2019-03-26T12:34:46.560Z,10.63
2019-03-26T12:35:46.788Z,10.61
2019-03-26T12:36:46.562Z,10.57
2019-03-26T12:37:46.536Z,10.54
2019-03-26T12:38:46.796Z,10.31
2019-03-26T12:40:01.638Z,10.31
2019-03-26T12:40:46.775Z,10.19
2019-03-26T12:41:46.538Z,10.2
2019-03-26T12:42:46.509Z,10.15
2019-03-26T12:43:46.512Z,10.2
2019-03-26T12:44:46.755Z,10.22
2019-03-26T12:45:46.504Z,10.1
2019-03-26T12:46:46.520Z,10.31
2019-03-26T12:47:46.748Z,10.31
2019-03-26T12:48:46.514Z,10.38
2019-03-26T12:49:46.745Z,10.38
2019-03-26T12:50:46.480Z,10.49
2019-03-26T12:51:46.472Z,10.51
2019-03-26T12:52:46.474Z,10.51
2019-03-26T12:53:46.704Z,10.46
2019-03-26T12:54:46.702Z,10.57
2019-03-26T12:55:46.207Z,10.57
2019-03-26T12:56:46.455Z,10.56
2019-03-26T12:57:46.459Z,10.4
2019-03-26T12:58:46.708Z,10.37
2019-03-26T12:59:46.704Z,10.23
2019-03-26T13:00:46.445Z,10.09
2019-03-26T13:01:46.447Z,10.12
2019-03-26T13:02:46.465Z,10.22
2019-03-26T13:03:46.180Z,10.1
2019-03-26T13:04:46.692Z,10.1
2019-03-26T13:05:46.653Z,10.07
2019-03-26T13:06:46.153Z,10.15
2019-03-26T13:07:46.649Z,10.13
2019-03-26T13:08:46.650Z,10.25
2019-03-26T13:09:46.672Z,10.22
2019-03-26T13:10:57.699Z,10.38
2019-03-26T13:11:46.633Z,10.57
2019-03-26T13:12:46.637Z,10.71
2019-03-26T13:13:46.386Z,10.75
2019-03-26T13:14:46.427Z,10.76
2019-03-26T13:15:46.378Z,10.76
2019-03-26T13:16:46.130Z,10.68